sensor_id;sensor_type;location;lat;lon;timestamp;pressure;altitude;pressure_sealevel;temperature;humidity
71774;BME280;59607;52.130;5.430;2023-02-27T00:01:20;103097.66;;;1.70;82.24
71774;BME280;59607;52.130;5.430;2023-02-27T00:03:53;103098.59;;;1.67;82.80
71774;BME280;59607;52.130;5.430;2023-02-27T00:06:20;103103.03;;;1.64;82.78
71774;BME280;59607;52.130;5.430;2023-02-27T00:08:54;103104.84;;;1.60;83.07
71774;BME280;59607;52.130;5.430;2023-02-27T00:11:21;103106.69;;;1.56;82.81
71774;BME280;59607;52.130;5.430;2023-02-27T00:13:50;103105.09;;;1.52;83.74
71774;BME280;59607;52.130;5.430;2023-02-27T00:16:20;103109.44;;;1.50;83.28
71774;BME280;59607;52.130;5.430;2023-02-27T00:18:46;103107.88;;;1.46;83.75
71774;BME280;59607;52.130;5.430;2023-02-27T00:21:15;103102.69;;;1.46;83.64
71774;BME280;59607;52.130;5.430;2023-02-27T00:23:44;103104.47;;;1.44;84.31
71774;BME280;59607;52.130;5.430;2023-02-27T00:26:12;103098.44;;;1.43;84.41
71774;BME280;59607;52.130;5.430;2023-02-27T00:28:39;103098.44;;;1.43;85.14
71774;BME280;59607;52.130;5.430;2023-02-27T00:31:08;103092.56;;;1.38;84.38
71774;BME280;59607;52.130;5.430;2023-02-27T00:33:36;103096.09;;;1.35;84.82
71774;BME280;59607;52.130;5.430;2023-02-27T00:36:17;103093.59;;;1.32;85.32
71774;BME280;59607;52.130;5.430;2023-02-27T00:38:46;103083.41;;;1.28;84.96
71774;BME280;59607;52.130;5.430;2023-02-27T00:41:12;103093.78;;;1.26;85.49
71774;BME280;59607;52.130;5.430;2023-02-27T00:43:39;103094.75;;;1.22;86.18
71774;BME280;59607;52.130;5.430;2023-02-27T00:46:05;103098.22;;;1.21;85.83
71774;BME280;59607;52.130;5.430;2023-02-27T00:48:38;103088.78;;;1.20;85.89
71774;BME280;59607;52.130;5.430;2023-02-27T00:51:04;103086.38;;;1.14;85.48
71774;BME280;59607;52.130;5.430;2023-02-27T00:53:41;103093.34;;;1.12;86.65
71774;BME280;59607;52.130;5.430;2023-02-27T00:56:07;103091.66;;;1.09;86.06
71774;BME280;59607;52.130;5.430;2023-02-27T00:58:38;103088.31;;;1.07;86.54
71774;BME280;59607;52.130;5.430;2023-02-27T01:01:13;103084.00;;;1.06;86.17
71774;BME280;59607;52.130;5.430;2023-02-27T01:03:54;103075.53;;;1.01;86.76
71774;BME280;59607;52.130;5.430;2023-02-27T01:06:27;103082.50;;;0.98;86.36
71774;BME280;59607;52.130;5.430;2023-02-27T01:08:53;103082.63;;;0.94;86.71
71774;BME280;59607;52.130;5.430;2023-02-27T01:11:32;103090.50;;;0.89;87.34
71774;BME280;59607;52.130;5.430;2023-02-27T01:13:58;103086.38;;;0.82;87.22
71774;BME280;59607;52.130;5.430;2023-02-27T01:16:32;103083.84;;;0.80;87.59
71774;BME280;59607;52.130;5.430;2023-02-27T01:18:59;103091.66;;;0.79;88.25
71774;BME280;59607;52.130;5.430;2023-02-27T01:21:31;103090.88;;;0.75;88.38
71774;BME280;59607;52.130;5.430;2023-02-27T01:24:00;103089.22;;;0.72;88.12
71774;BME280;59607;52.130;5.430;2023-02-27T01:26:26;103092.69;;;0.73;88.77
71774;BME280;59607;52.130;5.430;2023-02-27T01:29:11;103091.91;;;0.69;89.02
71774;BME280;59607;52.130;5.430;2023-02-27T01:31:42;103099.72;;;0.66;89.19
71774;BME280;59607;52.130;5.430;2023-02-27T01:34:09;103093.66;;;0.67;89.70
71774;BME280;59607;52.130;5.430;2023-02-27T01:36:38;103085.06;;;0.67;89.35
71774;BME280;59607;52.130;5.430;2023-02-27T01:39:05;103081.66;;;0.66;89.62
71774;BME280;59607;52.130;5.430;2023-02-27T01:41:32;103086.91;;;0.63;89.79
71774;BME280;59607;52.130;5.430;2023-02-27T01:44:01;103080.97;;;0.59;89.69
71774;BME280;59607;52.130;5.430;2023-02-27T01:46:30;103078.50;;;0.55;89.64
71774;BME280;59607;52.130;5.430;2023-02-27T01:49:01;103087.16;;;0.52;89.54
71774;BME280;59607;52.130;5.430;2023-02-27T01:51:44;103078.59;;;0.52;90.42
71774;BME280;59607;52.130;5.430;2023-02-27T01:54:24;103082.09;;;0.49;90.17
71774;BME280;59607;52.130;5.430;2023-02-27T01:56:57;103086.50;;;0.45;90.86
71774;BME280;59607;52.130;5.430;2023-02-27T01:59:24;103083.97;;;0.44;90.40
71774;BME280;59607;52.130;5.430;2023-02-27T02:01:59;103079.75;;;0.40;90.60
71774;BME280;59607;52.130;5.430;2023-02-27T02:04:30;103088.31;;;0.42;90.67
71774;BME280;59607;52.130;5.430;2023-02-27T02:07:08;103084.94;;;0.38;90.62
71774;BME280;59607;52.130;5.430;2023-02-27T02:09:48;103079.88;;;0.35;90.70
71774;BME280;59607;52.130;5.430;2023-02-27T02:12:31;103079.81;;;0.36;91.06
71774;BME280;59607;52.130;5.430;2023-02-27T02:14:59;103082.41;;;0.36;91.24
71774;BME280;59607;52.130;5.430;2023-02-27T02:17:33;103082.50;;;0.33;91.88
71774;BME280;59607;52.130;5.430;2023-02-27T02:23:04;103084.44;;;0.23;92.31
71774;BME280;59607;52.130;5.430;2023-02-27T02:32:12;103087.97;;;0.21;93.08
71774;BME280;59607;52.130;5.430;2023-02-27T02:43:47;103082.97;;;0.13;93.97
71774;BME280;59607;52.130;5.430;2023-02-27T02:52:09;103093.28;;;0.15;93.77
71774;BME280;59607;52.130;5.430;2023-02-27T02:54:50;103088.00;;;0.19;94.03
71774;BME280;59607;52.130;5.430;2023-02-27T02:57:32;103091.41;;;0.20;94.64
71774;BME280;59607;52.130;5.430;2023-02-27T03:00:16;103093.06;;;0.24;94.90
71774;BME280;59607;52.130;5.430;2023-02-27T03:02:54;103085.34;;;0.22;95.34
71774;BME280;59607;52.130;5.430;2023-02-27T03:05:30;103093.13;;;0.21;95.66
71774;BME280;59607;52.130;5.430;2023-02-27T03:08:09;103085.44;;;0.19;96.08
71774;BME280;59607;52.130;5.430;2023-02-27T03:10:43;103091.41;;;0.20;96.38
71774;BME280;59607;52.130;5.430;2023-02-27T03:13:21;103082.00;;;0.19;96.03
71774;BME280;59607;52.130;5.430;2023-02-27T03:15:57;103085.44;;;0.19;96.56
71774;BME280;59607;52.130;5.430;2023-02-27T03:18:58;103091.41;;;0.20;96.73
71774;BME280;59607;52.130;5.430;2023-02-27T03:21:36;103088.84;;;0.20;96.12
71774;BME280;59607;52.130;5.430;2023-02-27T03:24:06;103091.41;;;0.20;96.77
71774;BME280;59607;52.130;5.430;2023-02-27T03:26:48;103098.28;;;0.21;96.93
71774;BME280;59607;52.130;5.430;2023-02-27T03:29:25;103086.22;;;0.21;97.12
71774;BME280;59607;52.130;5.430;2023-02-27T03:32:06;103081.91;;;0.22;96.48
71774;BME280;59607;52.130;5.430;2023-02-27T03:34:38;103086.22;;;0.21;96.64
71774;BME280;59607;52.130;5.430;2023-02-27T03:42:51;103077.13;;;0.06;96.50
71774;BME280;59607;52.130;5.430;2023-02-27T03:45:33;103073.69;;;0.06;96.74
71774;BME280;59607;52.130;5.430;2023-02-27T03:48:03;103075.47;;;0.04;96.85
71774;BME280;59607;52.130;5.430;2023-02-27T03:50:33;103078.03;;;0.04;97.51
71774;BME280;59607;52.130;5.430;2023-02-27T03:53:04;103079.84;;;0.02;97.82
71774;BME280;59607;52.130;5.430;2023-02-27T03:55:40;103072.94;;;0.02;97.78
71774;BME280;59607;52.130;5.430;2023-02-27T03:58:11;103076.31;;;0.04;97.14
71774;BME280;59607;52.130;5.430;2023-02-27T04:00:45;103077.22;;;0.03;97.41
71774;BME280;59607;52.130;5.430;2023-02-27T04:03:12;103080.63;;;0.04;97.51
71774;BME280;59607;52.130;5.430;2023-02-27T04:05:39;103088.44;;;0.01;97.67
71774;BME280;59607;52.130;5.430;2023-02-27T04:08:38;103092.75;;;0.02;97.25
71774;BME280;59607;52.130;5.430;2023-02-27T04:14:38;103096.97;;;0.04;97.83
71774;BME280;59607;52.130;5.430;2023-02-27T04:17:21;103102.19;;;0.01;97.96
71774;BME280;59607;52.130;5.430;2023-02-27T04:20:11;103110.81;;;0.02;98.47
71774;BME280;59607;52.130;5.430;2023-02-27T04:22:46;103114.22;;;0.02;98.64
71774;BME280;59607;52.130;5.430;2023-02-27T04:25:50;103118.47;;;0.05;98.99
71774;BME280;59607;52.130;5.430;2023-02-27T04:28:26;103112.44;;;0.04;99.20
71774;BME280;59607;52.130;5.430;2023-02-27T04:31:00;103115.88;;;0.05;99.15
71774;BME280;59607;52.130;5.430;2023-02-27T04:33:59;103119.34;;;0.04;99.09
71774;BME280;59607;52.130;5.430;2023-02-27T04:36:51;103124.53;;;0.02;99.41
71774;BME280;59607;52.130;5.430;2023-02-27T05:01:30;103127.25;;;-0.04;99.81
71774;BME280;59607;52.130;5.430;2023-02-27T05:04:02;103130.81;;;-0.08;99.79
71774;BME280;59607;52.130;5.430;2023-02-27T05:06:32;103122.28;;;-0.12;100.00
71774;BME280;59607;52.130;5.430;2023-02-27T05:09:26;103136.81;;;-0.09;100.00
71774;BME280;59607;52.130;5.430;2023-02-27T05:12:00;103134.34;;;-0.14;100.00
71774;BME280;59607;52.130;5.430;2023-02-27T05:14:55;103129.25;;;-0.17;100.00
71774;BME280;59607;52.130;5.430;2023-02-27T05:17:59;103134.50;;;-0.20;100.00
71774;BME280;59607;52.130;5.430;2023-02-27T05:21:03;103141.38;;;-0.21;100.00
71774;BME280;59607;52.130;5.430;2023-02-27T05:30:25;103144.13;;;-0.29;100.00
71774;BME280;59607;52.130;5.430;2023-02-27T05:33:14;103145.84;;;-0.29;100.00
71774;BME280;59607;52.130;5.430;2023-02-27T05:36:08;103145.91;;;-0.32;100.00
71774;BME280;59607;52.130;5.430;2023-02-27T05:39:04;103145.13;;;-0.34;100.00
71774;BME280;59607;52.130;5.430;2023-02-27T05:41:42;103146.81;;;-0.33;100.00
71774;BME280;59607;52.130;5.430;2023-02-27T05:44:14;103146.81;;;-0.33;100.00
71774;BME280;59607;52.130;5.430;2023-02-27T05:47:09;103147.78;;;-0.38;100.00
71774;BME280;59607;52.130;5.430;2023-02-27T05:49:44;103149.50;;;-0.38;100.00
71774;BME280;59607;52.130;5.430;2023-02-27T05:52:22;103142.63;;;-0.38;100.00
71774;BME280;59607;52.130;5.430;2023-02-27T05:54:57;103152.94;;;-0.38;100.00
71774;BME280;59607;52.130;5.430;2023-02-27T05:58:34;103158.91;;;-0.37;100.00
71774;BME280;59607;52.130;5.430;2023-02-27T06:00:57;103158.94;;;-0.39;100.00
71774;BME280;59607;52.130;5.430;2023-02-27T06:03:25;103154.66;;;-0.38;100.00
71774;BME280;59607;52.130;5.430;2023-02-27T06:05:58;103158.09;;;-0.38;100.00
71774;BME280;59607;52.130;5.430;2023-02-27T06:08:28;103158.06;;;-0.36;100.00
71774;BME280;59607;52.130;5.430;2023-02-27T06:11:09;103164.06;;;-0.37;100.00
71774;BME280;59607;52.130;5.430;2023-02-27T06:13:41;103168.41;;;-0.38;100.00
71774;BME280;59607;52.130;5.430;2023-02-27T06:16:09;103176.97;;;-0.37;100.00
71774;BME280;59607;52.130;5.430;2023-02-27T06:18:51;103190.72;;;-0.36;100.00
71774;BME280;59607;52.130;5.430;2023-02-27T06:21:25;103190.72;;;-0.36;100.00
71774;BME280;59607;52.130;5.430;2023-02-27T06:23:51;103199.31;;;-0.36;100.00
71774;BME280;59607;52.130;5.430;2023-02-27T06:26:17;103204.47;;;-0.36;100.00
71774;BME280;59607;52.130;5.430;2023-02-27T06:28:45;103199.34;;;-0.38;100.00
71774;BME280;59607;52.130;5.430;2023-02-27T06:31:19;103201.06;;;-0.38;100.00
71774;BME280;59607;52.130;5.430;2023-02-27T06:33:48;103206.19;;;-0.36;100.00
71774;BME280;59607;52.130;5.430;2023-02-27T06:36:25;103211.22;;;-0.30;100.00
71774;BME280;59607;52.130;5.430;2023-02-27T06:38:58;103216.34;;;-0.29;100.00
71774;BME280;59607;52.130;5.430;2023-02-27T06:41:24;103223.19;;;-0.26;100.00
71774;BME280;59607;52.130;5.430;2023-02-27T06:43:54;103218.00;;;-0.24;100.00
71774;BME280;59607;52.130;5.430;2023-02-27T06:46:25;103218.78;;;-0.22;100.00
71774;BME280;59607;52.130;5.430;2023-02-27T06:48:53;103209.31;;;-0.22;100.00
71774;BME280;59607;52.130;5.430;2023-02-27T06:51:22;103220.53;;;-0.23;100.00
71774;BME280;59607;52.130;5.430;2023-02-27T06:53:49;103217.88;;;-0.20;100.00
71774;BME280;59607;52.130;5.430;2023-02-27T06:56:21;103217.78;;;-0.15;100.00
71774;BME280;59607;52.130;5.430;2023-02-27T06:58:50;103226.31;;;-0.11;100.00
71774;BME280;59607;52.130;5.430;2023-02-27T07:01:17;103217.66;;;-0.09;100.00
71774;BME280;59607;52.130;5.430;2023-02-27T07:03:58;103221.00;;;-0.04;100.00
71774;BME280;59607;52.130;5.430;2023-02-27T07:06:43;103226.91;;;0.02;100.00
71774;BME280;59607;52.130;5.430;2023-02-27T07:09:37;103218.97;;;0.11;100.00
71774;BME280;59607;52.130;5.430;2023-02-27T07:12:07;103227.38;;;0.19;99.82
71774;BME280;59607;52.130;5.430;2023-02-27T07:14:37;103227.28;;;0.24;99.29
71774;BME280;59607;52.130;5.430;2023-02-27T07:17:03;103225.34;;;0.34;99.09
71774;BME280;59607;52.130;5.430;2023-02-27T07:19:34;103221.44;;;0.52;98.74
71774;BME280;59607;52.130;5.430;2023-02-27T07:22:04;103224.09;;;0.49;97.94
71774;BME280;59607;52.130;5.430;2023-02-27T07:24:36;103224.09;;;0.49;98.11
71774;BME280;59607;52.130;5.430;2023-02-27T07:27:11;103231.63;;;0.60;97.24
71774;BME280;59607;52.130;5.430;2023-02-27T07:29:37;103236.66;;;0.65;97.43
71774;BME280;59607;52.130;5.430;2023-02-27T07:32:09;103234.75;;;0.73;96.61
71774;BME280;59607;52.130;5.430;2023-02-27T07:34:39;103231.97;;;0.81;96.47
71774;BME280;59607;52.130;5.430;2023-02-27T07:37:10;103228.28;;;0.90;96.20
71774;BME280;59607;52.130;5.430;2023-02-27T07:39:37;103227.25;;;0.97;95.92
71774;BME280;59607;52.130;5.430;2023-02-27T07:42:04;103223.69;;;1.01;95.40
71774;BME280;59607;52.130;5.430;2023-02-27T07:44:34;103230.28;;;1.13;94.61
71774;BME280;59607;52.130;5.430;2023-02-27T07:47:03;103226.59;;;1.22;94.50
71774;BME280;59607;52.130;5.430;2023-02-27T07:49:44;103231.56;;;1.30;92.98
71774;BME280;59607;52.130;5.430;2023-02-27T07:52:25;103226.28;;;1.34;92.85
71774;BME280;59607;52.130;5.430;2023-02-27T07:54:52;103225.88;;;1.48;92.41
71774;BME280;59607;52.130;5.430;2023-02-27T07:57:21;103230.78;;;1.58;91.54
71774;BME280;59607;52.130;5.430;2023-02-27T07:59:49;103234.09;;;1.63;90.90
71774;BME280;59607;52.130;5.430;2023-02-27T08:02:17;103233.97;;;1.68;90.33
71774;BME280;59607;52.130;5.430;2023-02-27T08:04:43;103236.47;;;1.71;90.44
71774;BME280;59607;52.130;5.430;2023-02-27T08:07:10;103238.78;;;1.80;90.09
71774;BME280;59607;52.130;5.430;2023-02-27T08:09:36;103231.41;;;1.96;89.45
71774;BME280;59607;52.130;5.430;2023-02-27T08:12:04;103243.53;;;1.96;87.78
71774;BME280;59607;52.130;5.430;2023-02-27T08:14:32;103244.25;;;2.00;87.46
71774;BME280;59607;52.130;5.430;2023-02-27T08:16:59;103248.28;;;2.10;87.93
71774;BME280;59607;52.130;5.430;2023-02-27T08:19:33;103248.03;;;2.18;86.50
71774;BME280;59607;52.130;5.430;2023-02-27T08:22:00;103247.88;;;2.22;85.90
71774;BME280;59607;52.130;5.430;2023-02-27T08:24:27;103245.09;;;2.29;84.96
71774;BME280;59607;52.130;5.430;2023-02-27T08:26:56;103256.97;;;2.36;85.72
71774;BME280;59607;52.130;5.430;2023-02-27T08:29:23;103250.63;;;2.46;85.20
71774;BME280;59607;52.130;5.430;2023-02-27T08:31:49;103256.38;;;2.55;85.52
71774;BME280;59607;52.130;5.430;2023-02-27T08:34:25;103254.44;;;2.62;84.84
71774;BME280;59607;52.130;5.430;2023-02-27T08:36:53;103254.25;;;2.68;84.42
71774;BME280;59607;52.130;5.430;2023-02-27T08:39:23;103261.03;;;2.72;83.70
71774;BME280;59607;52.130;5.430;2023-02-27T08:41:51;103266.13;;;2.75;83.51
71774;BME280;59607;52.130;5.430;2023-02-27T08:44:27;103269.53;;;2.77;83.04
71774;BME280;59607;52.130;5.430;2023-02-27T08:46:53;103271.09;;;2.81;82.79
71774;BME280;59607;52.130;5.430;2023-02-27T08:49:24;103271.16;;;2.80;81.69
71774;BME280;59607;52.130;5.430;2023-02-27T08:51:51;103279.72;;;2.82;82.00
71774;BME280;59607;52.130;5.430;2023-02-27T08:54:18;103282.81;;;2.93;81.86
71774;BME280;59607;52.130;5.430;2023-02-27T08:56:55;103274.19;;;3.18;81.42
71774;BME280;59607;52.130;5.430;2023-02-27T08:59:21;103275.41;;;3.33;80.73
71774;BME280;59607;52.130;5.430;2023-02-27T09:01:52;103279.94;;;3.52;79.47
71774;BME280;59607;52.130;5.430;2023-02-27T09:04:22;103276.22;;;3.60;79.09
71774;BME280;59607;52.130;5.430;2023-02-27T09:06:55;103281.94;;;3.69;78.31
71774;BME280;59607;52.130;5.430;2023-02-27T09:09:26;103275.88;;;3.69;77.11
71774;BME280;59607;52.130;5.430;2023-02-27T09:12:09;103282.09;;;3.65;77.81
71774;BME280;59607;52.130;5.430;2023-02-27T09:14:36;103284.38;;;3.74;77.39
71774;BME280;59607;52.130;5.430;2023-02-27T09:17:06;103276.09;;;3.87;77.05
71774;BME280;59607;52.130;5.430;2023-02-27T09:19:33;103285.13;;;4.00;76.12
71774;BME280;59607;52.130;5.430;2023-02-27T09:22:00;103275.69;;;3.98;75.76
71774;BME280;59607;52.130;5.430;2023-02-27T09:24:29;103278.03;;;4.05;76.42
71774;BME280;59607;52.130;5.430;2023-02-27T09:26:55;103282.63;;;4.21;76.28
71774;BME280;59607;52.130;5.430;2023-02-27T09:29:22;103282.44;;;4.26;74.85
71774;BME280;59607;52.130;5.430;2023-02-27T09:31:54;103278.75;;;4.31;75.54
71774;BME280;59607;52.130;5.430;2023-02-27T09:34:21;103289.22;;;4.52;74.79
71774;BME280;59607;52.130;5.430;2023-02-27T09:36:50;103282.47;;;4.69;73.89
71774;BME280;59607;52.130;5.430;2023-02-27T09:39:17;103283.94;;;4.76;73.12
71774;BME280;59607;52.130;5.430;2023-02-27T09:44:31;103284.41;;;4.86;71.51
71774;BME280;59607;52.130;5.430;2023-02-27T09:47:27;103280.88;;;4.87;70.10
71774;BME280;59607;52.130;5.430;2023-02-27T09:49:59;103275.34;;;4.95;69.40
71774;BME280;59607;52.130;5.430;2023-02-27T09:52:31;103287.53;;;4.94;68.96
71774;BME280;59607;52.130;5.430;2023-02-27T09:55:10;103289.13;;;4.97;68.55
71774;BME280;59607;52.130;5.430;2023-02-27T09:58:13;103281.78;;;5.07;68.43
71774;BME280;59607;52.130;5.430;2023-02-27T10:09:56;103284.84;;;5.57;66.58
71774;BME280;59607;52.130;5.430;2023-02-27T10:15:29;103275.53;;;5.91;60.84
71774;BME280;59607;52.130;5.430;2023-02-27T10:18:06;103276.69;;;6.03;60.76
71774;BME280;59607;52.130;5.430;2023-02-27T10:21:09;103258.94;;;6.31;58.39
71774;BME280;59607;52.130;5.430;2023-02-27T10:26:44;103275.53;;;5.72;59.07
71774;BME280;59607;52.130;5.430;2023-02-27T10:31:52;103273.59;;;5.76;59.29
71774;BME280;59607;52.130;5.430;2023-02-27T10:34:20;103272.56;;;5.80;59.13
71774;BME280;59607;52.130;5.430;2023-02-27T10:36:50;103272.34;;;6.04;58.28
71774;BME280;59607;52.130;5.430;2023-02-27T10:39:19;103269.63;;;6.07;58.76
71774;BME280;59607;52.130;5.430;2023-02-27T10:41:52;103279.81;;;6.12;58.35
71774;BME280;59607;52.130;5.430;2023-02-27T10:44:19;103267.19;;;6.02;58.50
71774;BME280;59607;52.130;5.430;2023-02-27T10:46:51;103273.41;;;6.19;58.31
71774;BME280;59607;52.130;5.430;2023-02-27T10:49:20;103272.06;;;6.47;56.91
71774;BME280;59607;52.130;5.430;2023-02-27T10:54:29;103258.44;;;6.77;54.20
71774;BME280;59607;52.130;5.430;2023-02-27T10:57:05;103259.50;;;6.91;54.64
71774;BME280;59607;52.130;5.430;2023-02-27T10:59:42;103259.50;;;7.09;52.68
71774;BME280;59607;52.130;5.430;2023-02-27T11:02:35;103269.00;;;7.10;52.46
71774;BME280;59607;52.130;5.430;2023-02-27T11:05:31;103254.28;;;6.91;51.82
71774;BME280;59607;52.130;5.430;2023-02-27T11:08:30;103259.34;;;7.12;54.26
71774;BME280;59607;52.130;5.430;2023-02-27T11:11:06;103245.19;;;6.82;51.56
71774;BME280;59607;52.130;5.430;2023-02-27T11:13:38;103244.00;;;6.70;52.50
71774;BME280;59607;52.130;5.430;2023-02-27T11:16:17;103245.66;;;6.55;52.06
71774;BME280;59607;52.130;5.430;2023-02-27T11:18:50;103240.44;;;6.55;52.20
71774;BME280;59607;52.130;5.430;2023-02-27T11:21:58;103239.09;;;6.46;53.79
71774;BME280;59607;52.130;5.430;2023-02-27T11:24:24;103228.69;;;6.64;52.75
71774;BME280;59607;52.130;5.430;2023-02-27T11:27:01;103228.53;;;6.49;52.36
71774;BME280;59607;52.130;5.430;2023-02-27T11:30:03;103223.69;;;6.41;51.99
71774;BME280;59607;52.130;5.430;2023-02-27T11:32:44;103220.25;;;6.59;52.47
71774;BME280;59607;52.130;5.430;2023-02-27T11:37:53;103214.56;;;6.86;51.66
71774;BME280;59607;52.130;5.430;2023-02-27T11:40:48;103189.06;;;6.91;51.54
71774;BME280;59607;52.130;5.430;2023-02-27T11:43:37;103197.28;;;6.83;50.15
71774;BME280;59607;52.130;5.430;2023-02-27T11:46:20;103206.69;;;6.70;50.87
71774;BME280;59607;52.130;5.430;2023-02-27T11:52:37;103202.75;;;6.61;50.87
71774;BME280;59607;52.130;5.430;2023-02-27T11:55:13;103197.63;;;6.59;50.92
71774;BME280;59607;52.130;5.430;2023-02-27T11:57:45;103205.50;;;6.22;51.04
71774;BME280;59607;52.130;5.430;2023-02-27T12:00:38;103196.59;;;6.26;51.43
71774;BME280;59607;52.130;5.430;2023-02-27T12:03:26;103194.63;;;6.32;51.98
71774;BME280;59607;52.130;5.430;2023-02-27T12:06:20;103192.41;;;6.59;51.25
71774;BME280;59607;52.130;5.430;2023-02-27T12:09:06;103195.09;;;6.58;50.81
71774;BME280;59607;52.130;5.430;2023-02-27T12:11:44;103187.66;;;6.68;50.93
71774;BME280;59607;52.130;5.430;2023-02-27T12:14:39;103180.03;;;6.81;50.68
71774;BME280;59607;52.130;5.430;2023-02-27T12:17:19;103184.66;;;6.75;49.93
71774;BME280;59607;52.130;5.430;2023-02-27T12:19:59;103181.91;;;6.95;50.02
71774;BME280;59607;52.130;5.430;2023-02-27T12:22:41;103184.28;;;6.99;50.11
71774;BME280;59607;52.130;5.430;2023-02-27T12:25:26;103187.69;;;7.18;49.99
71774;BME280;59607;52.130;5.430;2023-02-27T12:34:35;103171.97;;;7.68;49.33
71774;BME280;59607;52.130;5.430;2023-02-27T12:37:01;103170.09;;;7.86;49.13
71774;BME280;59607;52.130;5.430;2023-02-27T12:39:39;103169.53;;;7.81;49.35
71774;BME280;59607;52.130;5.430;2023-02-27T12:42:28;103162.38;;;7.68;48.71
71774;BME280;59607;52.130;5.430;2023-02-27T12:59:52;103163.53;;;7.14;51.43
71774;BME280;59607;52.130;5.430;2023-02-27T13:05:08;103164.91;;;7.21;50.89
71774;BME280;59607;52.130;5.430;2023-02-27T13:10:48;103166.75;;;7.51;50.03
71774;BME280;59607;52.130;5.430;2023-02-27T13:19:25;103162.66;;;8.10;50.79
71774;BME280;59607;52.130;5.430;2023-02-27T13:24:54;103148.13;;;7.41;51.75
71774;BME280;59607;52.130;5.430;2023-02-27T13:27:32;103156.47;;;7.32;52.31
71774;BME280;59607;52.130;5.430;2023-02-27T13:32:41;103155.03;;;7.10;54.16
71774;BME280;59607;52.130;5.430;2023-02-27T13:35:32;103146.28;;;7.11;54.36
71774;BME280;59607;52.130;5.430;2023-02-27T13:38:03;103153.75;;;7.01;53.48
71774;BME280;59607;52.130;5.430;2023-02-27T13:40:54;103150.94;;;6.88;54.21
71774;BME280;59607;52.130;5.430;2023-02-27T13:43:37;103149.28;;;6.87;54.28
71774;BME280;59607;52.130;5.430;2023-02-27T13:52:00;103151.78;;;7.39;52.26
71774;BME280;59607;52.130;5.430;2023-02-27T13:54:30;103142.56;;;7.64;52.39
71774;BME280;59607;52.130;5.430;2023-02-27T13:57:24;103136.72;;;7.91;51.48
71774;BME280;59607;52.130;5.430;2023-02-27T14:00:27;103144.53;;;7.60;51.32
71774;BME280;59607;52.130;5.430;2023-02-27T14:03:15;103136.88;;;7.25;50.99
71774;BME280;59607;52.130;5.430;2023-02-27T14:05:50;103144.72;;;6.91;51.02
71774;BME280;59607;52.130;5.430;2023-02-27T14:08:45;103140.63;;;7.03;51.35
71774;BME280;59607;52.130;5.430;2023-02-27T14:14:54;103137.69;;;7.25;51.52
71774;BME280;59607;52.130;5.430;2023-02-27T14:23:21;103136.69;;;7.44;52.59
71774;BME280;59607;52.130;5.430;2023-02-27T14:25:55;103146.13;;;7.47;52.15
71774;BME280;59607;52.130;5.430;2023-02-27T14:31:36;103134.97;;;7.75;51.54
71774;BME280;59607;52.130;5.430;2023-02-27T14:34:04;103133.44;;;7.87;51.24
71774;BME280;59607;52.130;5.430;2023-02-27T14:36:34;103148.47;;;7.68;51.49
71774;BME280;59607;52.130;5.430;2023-02-27T14:39:29;103142.41;;;7.35;51.81
71774;BME280;59607;52.130;5.430;2023-02-27T14:45:12;103144.13;;;6.86;53.32
71774;BME280;59607;52.130;5.430;2023-02-27T14:47:40;103140.47;;;6.72;53.09
71774;BME280;59607;52.130;5.430;2023-02-27T14:50:28;103139.41;;;6.59;53.44
71774;BME280;59607;52.130;5.430;2023-02-27T14:53:25;103127.78;;;6.48;53.87
71774;BME280;59607;52.130;5.430;2023-02-27T14:55:58;103130.16;;;6.53;53.57
71774;BME280;59607;52.130;5.430;2023-02-27T14:58:27;103124.97;;;6.69;53.51
71774;BME280;59607;52.130;5.430;2023-02-27T15:01:09;103140.00;;;6.64;53.46
71774;BME280;59607;52.130;5.430;2023-02-27T15:03:49;103136.72;;;6.78;53.37
71774;BME280;59607;52.130;5.430;2023-02-27T15:06:20;103126.97;;;6.98;52.46
71774;BME280;59607;52.130;5.430;2023-02-27T15:08:50;103128.59;;;7.00;52.72
71774;BME280;59607;52.130;5.430;2023-02-27T15:11:21;103127.06;;;7.12;52.78
71774;BME280;59607;52.130;5.430;2023-02-27T15:14:14;103133.41;;;7.24;53.33
71774;BME280;59607;52.130;5.430;2023-02-27T15:16:53;103135.34;;;7.21;52.86
71774;BME280;59607;52.130;5.430;2023-02-27T15:19:27;103137.50;;;7.12;53.47
71774;BME280;59607;52.130;5.430;2023-02-27T15:21:59;103132.09;;;6.99;54.01
71774;BME280;59607;52.130;5.430;2023-02-27T15:24:46;103144.66;;;6.93;54.62
71774;BME280;59607;52.130;5.430;2023-02-27T15:27:20;103131.34;;;6.81;54.24
71774;BME280;59607;52.130;5.430;2023-02-27T15:29:59;103137.31;;;6.65;54.50
71774;BME280;59607;52.130;5.430;2023-02-27T15:32:40;103144.03;;;6.53;54.73
71774;BME280;59607;52.130;5.430;2023-02-27T15:35:15;103148.63;;;6.48;55.03
71774;BME280;59607;52.130;5.430;2023-02-27T15:37:57;103153.22;;;6.43;54.79
71774;BME280;59607;52.130;5.430;2023-02-27T15:40:29;103149.78;;;6.42;55.81
71774;BME280;59607;52.130;5.430;2023-02-27T15:43:11;103146.66;;;6.36;55.40
71774;BME280;59607;52.130;5.430;2023-02-27T15:45:53;103153.06;;;6.28;55.19
71774;BME280;59607;52.130;5.430;2023-02-27T15:48:27;103157.91;;;6.36;55.17
71774;BME280;59607;52.130;5.430;2023-02-27T15:51:02;103149.03;;;6.40;55.37
71774;BME280;59607;52.130;5.430;2023-02-27T15:53:29;103152.78;;;6.35;55.61
71774;BME280;59607;52.130;5.430;2023-02-27T15:56:07;103158.91;;;6.34;54.75
71774;BME280;59607;52.130;5.430;2023-02-27T15:58:44;103155.28;;;6.36;55.37
71774;BME280;59607;52.130;5.430;2023-02-27T16:01:19;103159.47;;;6.40;55.46
71774;BME280;59607;52.130;5.430;2023-02-27T16:03:58;103160.59;;;6.35;55.86
71774;BME280;59607;52.130;5.430;2023-02-27T16:06:33;103146.78;;;6.33;55.98
71774;BME280;59607;52.130;5.430;2023-02-27T16:09:06;103145.41;;;6.25;55.82
71774;BME280;59607;52.130;5.430;2023-02-27T16:11:44;103146.34;;;6.24;56.28
71774;BME280;59607;52.130;5.430;2023-02-27T16:14:42;103147.25;;;6.23;56.86